createdAt,value
2017-03-12T00:00:50.114Z,956.03
2017-03-12T00:01:44.043Z,956.01
2017-03-12T00:02:40.589Z,956.01
2017-03-12T00:03:46.163Z,955.97
2017-03-12T00:04:43.934Z,955.94
2017-03-12T00:05:49.122Z,955.96
2017-03-12T00:06:53.472Z,955.95
2017-03-12T00:07:42.926Z,955.95
2017-03-12T00:08:41.638Z,955.90
2017-03-12T00:09:54.660Z,955.93
2017-03-12T00:10:44.397Z,955.92
2017-03-12T00:11:40.326Z,955.90
2017-03-12T00:12:40.466Z,955.92
2017-03-12T00:13:45.718Z,955.94
2017-03-12T00:14:44.348Z,955.94
2017-03-12T00:15:42.888Z,955.91
2017-03-12T00:16:38.270Z,955.91
2017-03-12T00:17:39.314Z,955.92
2017-03-12T00:18:44.602Z,955.88
2017-03-12T00:19:41.126Z,955.88
2017-03-12T00:20:41.024Z,955.90
2017-03-12T00:21:36.142Z,955.89
2017-03-12T00:22:40.290Z,955.81
2017-03-12T00:23:34.551Z,955.83
2017-03-12T00:24:45.083Z,955.82
2017-03-12T00:25:45.655Z,955.78
2017-03-12T00:26:43.630Z,955.79
2017-03-12T00:27:37.545Z,955.76
2017-03-12T00:28:44.725Z,955.81
2017-03-12T00:29:44.438Z,955.78
2017-03-12T00:30:40.348Z,955.84
2017-03-12T00:31:47.224Z,955.81
2017-03-12T00:32:44.641Z,955.81
2017-03-12T00:33:34.655Z,955.80
2017-03-12T00:34:39.622Z,955.78
2017-03-12T00:35:40.563Z,955.78
2017-03-12T00:36:55.440Z,955.75
2017-03-12T00:37:44.043Z,955.77
2017-03-12T00:38:57.404Z,955.77
2017-03-12T00:39:41.571Z,955.76
2017-03-12T00:40:44.400Z,955.77
2017-03-12T00:41:49.077Z,955.75
2017-03-12T00:42:40.898Z,955.75
2017-03-12T00:43:44.935Z,955.73
2017-03-12T00:44:58.734Z,955.71
2017-03-12T00:45:52.164Z,955.71
2017-03-12T00:46:53.659Z,955.68
2017-03-12T00:47:55.024Z,955.68
2017-03-12T00:48:35.013Z,955.70
2017-03-12T00:49:44.212Z,955.66
2017-03-12T00:50:45.234Z,955.65
2017-03-12T00:51:40.222Z,955.63
2017-03-12T00:52:40.089Z,955.64
2017-03-12T00:53:50.214Z,955.63
2017-03-12T00:54:44.734Z,955.62
2017-03-12T00:55:40.793Z,955.61
2017-03-12T00:56:40.741Z,955.67
2017-03-12T00:57:40.647Z,955.62
2017-03-12T00:58:55.393Z,955.64
2017-03-12T00:59:39.982Z,955.60
2017-03-12T01:00:43.329Z,955.63
2017-03-12T01:01:44.464Z,955.59
2017-03-12T01:02:47.586Z,955.59
2017-03-12T01:03:49.818Z,955.58
2017-03-12T01:04:40.661Z,955.57
2017-03-12T01:05:50.092Z,955.59
2017-03-12T01:06:45.573Z,955.54
2017-03-12T01:07:55.495Z,955.52
2017-03-12T01:08:49.589Z,955.52
2017-03-12T01:09:45.113Z,955.50
2017-03-12T01:10:45.401Z,955.50
2017-03-12T01:11:44.637Z,955.51
2017-03-12T01:12:50.029Z,955.49
2017-03-12T01:13:41.014Z,955.48
2017-03-12T01:14:54.311Z,955.45
2017-03-12T01:15:34.508Z,955.44
2017-03-12T01:16:40.501Z,955.42
2017-03-12T01:17:49.854Z,955.41
2017-03-12T01:18:58.723Z,955.41
2017-03-12T01:19:52.653Z,955.43
2017-03-12T01:20:49.281Z,955.40
2017-03-12T01:21:49.681Z,955.40
2017-03-12T01:22:57.291Z,955.43
2017-03-12T01:23:48.188Z,955.39
2017-03-12T01:24:53.026Z,955.38
2017-03-12T01:25:48.727Z,955.37
2017-03-12T01:26:43.940Z,955.38
2017-03-12T01:27:48.671Z,955.34
2017-03-12T01:28:58.280Z,955.39
2017-03-12T01:29:44.674Z,955.30
2017-03-12T01:30:50.158Z,955.30
2017-03-12T01:31:49.146Z,955.31
2017-03-12T01:32:55.578Z,955.30
2017-03-12T01:34:15.041Z,955.29
2017-03-12T01:34:49.311Z,955.32
2017-03-12T01:35:41.736Z,955.28
2017-03-12T01:36:44.445Z,955.33
2017-03-12T01:37:58.208Z,955.31
2017-03-12T01:38:53.059Z,955.28
2017-03-12T01:39:45.751Z,955.33
2017-03-12T01:40:40.052Z,955.26
2017-03-12T01:41:56.897Z,955.27
2017-03-12T01:42:50.497Z,955.23
2017-03-12T01:43:54.983Z,955.21
2017-03-12T01:44:54.787Z,955.23
2017-03-12T01:45:48.803Z,955.21
2017-03-12T01:46:59.167Z,955.19
2017-03-12T01:47:53.534Z,955.20
2017-03-12T01:48:43.243Z,955.16
2017-03-12T01:49:58.693Z,955.18
2017-03-12T01:50:48.723Z,955.15
2017-03-12T01:51:42.318Z,955.12
2017-03-12T01:52:58.020Z,955.10
2017-03-12T01:53:46.069Z,955.08
2017-03-12T01:54:40.673Z,955.07
2017-03-12T01:55:51.526Z,955.05
2017-03-12T01:56:50.296Z,955.04
2017-03-12T01:57:59.127Z,955.05
2017-03-12T01:58:54.019Z,955.03
2017-03-12T01:59:39.306Z,955.05
2017-03-12T02:00:40.003Z,954.99
2017-03-12T02:02:04.636Z,955.00
2017-03-12T02:02:58.568Z,954.99
2017-03-12T02:03:41.913Z,954.96
2017-03-12T02:04:41.153Z,954.99
2017-03-12T02:05:49.273Z,954.98
2017-03-12T02:07:01.745Z,955.00
2017-03-12T02:07:52.526Z,954.95
2017-03-12T02:08:46.266Z,954.95
2017-03-12T02:09:52.585Z,954.93
2017-03-12T02:10:52.891Z,954.93
2017-03-12T02:11:43.392Z,954.93
2017-03-12T02:12:54.345Z,954.88
2017-03-12T02:13:49.330Z,954.90
2017-03-12T02:14:58.322Z,954.90
2017-03-12T02:15:39.210Z,954.91
2017-03-12T02:16:55.356Z,954.89
2017-03-12T02:17:49.925Z,954.87
2017-03-12T02:18:49.293Z,954.86
2017-03-12T02:19:40.922Z,954.86
2017-03-12T02:20:43.276Z,954.90
2017-03-12T02:21:52.815Z,954.86
2017-03-12T02:22:58.793Z,954.83
2017-03-12T02:23:47.627Z,954.86
2017-03-12T02:24:58.142Z,954.86
2017-03-12T02:25:51.359Z,954.88
2017-03-12T02:26:49.928Z,954.83
2017-03-12T02:27:50.508Z,954.82
2017-03-12T02:28:55.746Z,954.82
2017-03-12T02:29:56.822Z,954.82
2017-03-12T02:30:47.806Z,954.83
2017-03-12T02:31:40.437Z,954.84
2017-03-12T02:32:48.463Z,954.79
2017-03-12T02:33:48.352Z,954.81
2017-03-12T02:34:54.349Z,954.82
2017-03-12T02:35:49.718Z,954.85
2017-03-12T02:36:58.140Z,954.83
2017-03-12T02:37:40.958Z,954.87
2017-03-12T02:38:45.747Z,954.89
2017-03-12T02:39:56.954Z,954.84
2017-03-12T02:40:40.396Z,954.88
2017-03-12T02:41:56.258Z,954.87
2017-03-12T02:42:31.545Z,954.89
2017-03-12T02:43:52.432Z,954.89
2017-03-12T02:44:47.924Z,954.88
2017-03-12T02:45:48.948Z,954.90
2017-03-12T02:46:40.030Z,954.89
2017-03-12T02:47:50.671Z,954.90
2017-03-12T02:48:55.199Z,954.86
2017-03-12T02:49:44.403Z,954.89
2017-03-12T02:50:50.129Z,954.86
2017-03-12T02:51:40.774Z,954.84
2017-03-12T02:52:45.194Z,954.87
2017-03-12T02:53:51.368Z,954.79
2017-03-12T02:54:38.709Z,954.81
2017-03-12T02:55:37.435Z,954.89
2017-03-12T02:56:38.577Z,954.91
2017-03-12T02:57:45.433Z,954.89
2017-03-12T02:58:58.851Z,954.86
2017-03-12T02:59:40.337Z,954.81
2017-03-12T03:00:48.731Z,954.82
2017-03-12T03:04:42.744Z,954.84
2017-03-12T03:05:57.507Z,954.81
2017-03-12T03:06:48.724Z,954.81
2017-03-12T03:07:34.317Z,954.80
2017-03-12T03:08:40.102Z,954.81
2017-03-12T03:09:40.105Z,954.80
2017-03-12T03:10:53.736Z,954.79
2017-03-12T03:11:47.841Z,954.77
2017-03-12T03:12:44.619Z,954.78
2017-03-12T03:13:47.534Z,954.77
2017-03-12T03:15:06.672Z,954.79
2017-03-12T03:16:07.954Z,954.80
2017-03-12T03:16:43.992Z,954.75
2017-03-12T03:17:35.486Z,954.76
2017-03-12T03:18:45.861Z,954.74
2017-03-12T03:19:46.373Z,954.73
2017-03-12T03:20:55.582Z,954.70
2017-03-12T03:23:34.877Z,954.71
2017-03-12T03:24:46.967Z,954.68
2017-03-12T03:26:56.135Z,954.66
2017-03-12T03:27:44.080Z,954.66
2017-03-12T03:28:46.216Z,954.62
2017-03-12T03:29:34.195Z,954.66
2017-03-12T03:30:53.508Z,954.65
2017-03-12T03:32:41.429Z,954.60
2017-03-12T03:32:52.496Z,954.64
2017-03-12T03:33:52.991Z,954.61
2017-03-12T03:34:41.041Z,954.62
2017-03-12T03:35:40.760Z,954.60
2017-03-12T03:36:34.620Z,954.63
2017-03-12T03:37:44.309Z,954.66
2017-03-12T03:38:47.293Z,954.65
2017-03-12T03:39:41.219Z,954.61
2017-03-12T03:40:38.593Z,954.64
2017-03-12T03:43:54.316Z,954.64
2017-03-12T03:44:04.875Z,954.55
2017-03-12T03:44:53.631Z,954.54
2017-03-12T03:45:40.851Z,954.54
2017-03-12T03:46:43.137Z,954.52
2017-03-12T03:47:40.643Z,954.51
2017-03-12T03:49:57.193Z,954.55
2017-03-12T03:50:40.927Z,954.54
2017-03-12T03:51:44.222Z,954.49
2017-03-12T03:52:40.021Z,954.48
2017-03-12T03:53:54.599Z,954.51
2017-03-12T03:54:44.024Z,954.51
2017-03-12T03:55:40.942Z,954.50
2017-03-12T03:56:49.329Z,954.55
2017-03-12T03:57:39.579Z,954.53
2017-03-12T03:58:40.266Z,954.52
2017-03-12T03:59:44.520Z,954.57
2017-03-12T04:00:40.456Z,954.59
2017-03-12T04:01:43.678Z,954.58
2017-03-12T04:02:38.687Z,954.57
2017-03-12T04:03:44.225Z,954.58
2017-03-12T04:04:39.426Z,954.58
2017-03-12T04:05:45.170Z,954.59
2017-03-12T04:06:49.861Z,954.59
2017-03-12T04:08:55.737Z,954.64
2017-03-12T04:09:44.791Z,954.62
2017-03-12T04:10:40.926Z,954.59
2017-03-12T04:11:49.591Z,954.62
2017-03-12T04:12:55.758Z,954.61
2017-03-12T04:13:50.597Z,954.61
2017-03-12T04:14:45.311Z,954.59
2017-03-12T04:15:38.951Z,954.60
2017-03-12T04:16:40.186Z,954.53
2017-03-12T04:17:40.566Z,954.56
2017-03-12T04:18:42.241Z,954.50
2017-03-12T04:19:39.387Z,954.50
2017-03-12T04:20:40.399Z,954.53
2017-03-12T04:21:44.599Z,954.52
2017-03-12T04:22:41.168Z,954.52
2017-03-12T04:23:42.179Z,954.53
2017-03-12T04:24:43.967Z,954.54
2017-03-12T04:25:48.692Z,954.51
2017-03-12T04:26:48.450Z,954.51
2017-03-12T04:27:40.227Z,954.53
2017-03-12T04:28:44.104Z,954.48
2017-03-12T04:29:40.797Z,954.51
2017-03-12T04:30:45.154Z,954.48
2017-03-12T04:31:54.589Z,954.47
2017-03-12T04:32:50.837Z,954.43
2017-03-12T04:33:35.255Z,954.45
2017-03-12T04:34:48.843Z,954.44
2017-03-12T04:35:45.757Z,954.44
2017-03-12T04:36:40.817Z,954.42
2017-03-12T04:37:44.748Z,954.37
2017-03-12T04:38:39.400Z,954.36
2017-03-12T04:39:43.094Z,954.28
2017-03-12T04:40:44.277Z,954.32
2017-03-12T04:41:48.625Z,954.28
2017-03-12T04:42:43.608Z,954.26
2017-03-12T04:43:40.485Z,954.28
2017-03-12T04:44:47.399Z,954.22
2017-03-12T04:45:45.166Z,954.29
2017-03-12T04:46:47.349Z,954.28
2017-03-12T04:47:43.205Z,954.28
2017-03-12T04:48:38.527Z,954.31
2017-03-12T04:49:53.988Z,954.31
2017-03-12T04:50:39.608Z,954.29
2017-03-12T04:51:49.908Z,954.29
2017-03-12T04:52:40.350Z,954.26
2017-03-12T04:53:50.093Z,954.23
2017-03-12T04:54:40.875Z,954.23
2017-03-12T04:55:50.105Z,954.23
2017-03-12T04:56:41.028Z,954.23
2017-03-12T04:57:49.107Z,954.23
2017-03-12T04:58:50.703Z,954.26
2017-03-12T04:59:58.537Z,954.23
2017-03-12T05:00:50.637Z,954.23
2017-03-12T05:01:45.139Z,954.22
2017-03-12T05:02:49.644Z,954.23
2017-03-12T05:03:49.626Z,954.22
2017-03-12T05:04:49.738Z,954.17
2017-03-12T05:05:40.733Z,954.18
2017-03-12T05:06:35.206Z,954.17
2017-03-12T05:07:45.150Z,954.19
2017-03-12T05:08:39.135Z,954.19
2017-03-12T05:09:43.438Z,954.20
2017-03-12T05:10:55.412Z,954.20
2017-03-12T05:11:50.296Z,954.22
2017-03-12T05:12:34.720Z,954.25
2017-03-12T05:13:49.806Z,954.22
2017-03-12T05:14:40.757Z,954.22
2017-03-12T05:15:39.508Z,954.25
2017-03-12T05:16:44.867Z,954.29
2017-03-12T05:17:45.122Z,954.23
2017-03-12T05:18:40.704Z,954.27
2017-03-12T05:19:50.467Z,954.28
2017-03-12T05:20:39.673Z,954.27
2017-03-12T05:21:44.829Z,954.30
2017-03-12T05:22:53.925Z,954.29
2017-03-12T05:23:48.311Z,954.27
2017-03-12T05:24:57.416Z,954.28
2017-03-12T05:25:41.347Z,954.29
2017-03-12T05:26:45.248Z,954.28
2017-03-12T05:27:49.680Z,954.30
2017-03-12T05:28:44.314Z,954.31
2017-03-12T05:29:54.531Z,954.35
2017-03-12T05:30:45.051Z,954.34
2017-03-12T05:31:53.699Z,954.34
2017-03-12T05:32:46.147Z,954.36
2017-03-12T05:33:49.193Z,954.36
2017-03-12T05:34:48.879Z,954.40
2017-03-12T05:35:40.410Z,954.38
2017-03-12T05:36:43.945Z,954.37
2017-03-12T05:37:49.749Z,954.35
2017-03-12T05:38:40.394Z,954.39
2017-03-12T05:39:40.792Z,954.35
2017-03-12T05:40:50.462Z,954.40
2017-03-12T05:41:53.274Z,954.42
2017-03-12T05:42:50.203Z,954.43
2017-03-12T05:43:38.260Z,954.40
2017-03-12T05:44:48.105Z,954.47
2017-03-12T05:45:39.176Z,954.47
2017-03-12T05:46:54.646Z,954.48
2017-03-12T05:47:49.486Z,954.47
2017-03-12T05:48:40.396Z,954.44
2017-03-12T05:49:40.177Z,954.46
2017-03-12T05:50:46.324Z,954.46
2017-03-12T05:51:45.347Z,954.49
2017-03-12T05:52:46.168Z,954.46
2017-03-12T05:53:42.125Z,954.46
2017-03-12T05:54:46.455Z,954.48
2017-03-12T05:55:43.539Z,954.47
2017-03-12T05:56:56.211Z,954.46
2017-03-12T05:57:43.344Z,954.51
2017-03-12T05:58:45.017Z,954.48
2017-03-12T05:59:41.595Z,954.44
2017-03-12T06:00:40.006Z,954.46
2017-03-12T06:01:51.527Z,954.43
2017-03-12T06:02:40.537Z,954.45
2017-03-12T06:03:53.936Z,954.44
2017-03-12T06:04:49.991Z,954.48
2017-03-12T06:05:43.739Z,954.51
2017-03-12T06:06:44.242Z,954.48
2017-03-12T06:07:44.845Z,954.44
2017-03-12T06:08:53.192Z,954.45
2017-03-12T06:09:43.512Z,954.44
2017-03-12T06:10:39.909Z,954.47
2017-03-12T06:11:50.597Z,954.46
2017-03-12T06:12:40.256Z,954.46
2017-03-12T06:13:50.194Z,954.48
2017-03-12T06:14:40.616Z,954.42
2017-03-12T06:15:55.525Z,954.48
2017-03-12T06:16:40.612Z,954.47
2017-03-12T06:17:32.750Z,954.47
2017-03-12T06:18:44.781Z,954.43
2017-03-12T06:19:35.079Z,954.48
2017-03-12T06:20:39.570Z,954.44
2017-03-12T06:21:40.544Z,954.41
2017-03-12T06:22:50.589Z,954.41
2017-03-12T06:23:44.209Z,954.43
2017-03-12T06:24:49.833Z,954.45
2017-03-12T06:25:44.558Z,954.44
2017-03-12T06:26:45.083Z,954.44
2017-03-12T06:27:59.381Z,954.41
2017-03-12T06:28:48.827Z,954.47
2017-03-12T06:29:53.578Z,954.43
2017-03-12T06:30:53.017Z,954.41
2017-03-12T06:31:49.427Z,954.45
2017-03-12T06:32:40.321Z,954.43
2017-03-12T06:33:44.429Z,954.40
2017-03-12T06:34:49.147Z,954.44
2017-03-12T06:35:41.301Z,954.38
2017-03-12T06:36:45.457Z,954.45
2017-03-12T06:37:40.431Z,954.43
2017-03-12T06:39:00.396Z,954.44
2017-03-12T06:39:53.758Z,954.44
2017-03-12T06:40:38.565Z,954.43
2017-03-12T06:41:44.013Z,954.41
2017-03-12T06:42:48.939Z,954.40
2017-03-12T06:43:44.858Z,954.45
2017-03-12T06:44:40.552Z,954.43
2017-03-12T06:45:44.851Z,954.42
2017-03-12T06:46:41.078Z,954.47
2017-03-12T06:47:44.325Z,954.44
2017-03-12T06:48:45.056Z,954.43
2017-03-12T06:49:44.958Z,954.46
2017-03-12T06:50:49.525Z,954.45
2017-03-12T06:51:43.776Z,954.48
2017-03-12T06:52:47.899Z,954.43
2017-03-12T06:53:43.184Z,954.49
2017-03-12T06:54:48.859Z,954.44
2017-03-12T06:55:40.182Z,954.48
2017-03-12T06:56:49.640Z,954.46
2017-03-12T06:57:40.682Z,954.52
2017-03-12T06:58:51.319Z,954.51
2017-03-12T06:59:46.534Z,954.53
2017-03-12T07:00:40.397Z,954.52
2017-03-12T07:01:47.873Z,954.52
2017-03-12T07:02:50.056Z,954.53
2017-03-12T07:03:50.926Z,954.54
2017-03-12T07:04:42.854Z,954.54
2017-03-12T07:05:53.698Z,954.58
2017-03-12T07:07:03.095Z,954.56
2017-03-12T07:07:46.555Z,954.61
2017-03-12T07:08:56.470Z,954.59
2017-03-12T07:09:41.326Z,954.58
2017-03-12T07:10:39.574Z,954.58
2017-03-12T07:11:40.147Z,954.56
2017-03-12T07:12:41.007Z,954.55
2017-03-12T07:13:50.692Z,954.59
2017-03-12T07:14:47.631Z,954.57
2017-03-12T07:15:44.805Z,954.60
2017-03-12T07:16:39.013Z,954.62
2017-03-12T07:17:50.709Z,954.62
2017-03-12T07:18:40.669Z,954.65
2017-03-12T07:19:50.095Z,954.61
2017-03-12T07:20:49.450Z,954.55
2017-03-12T07:21:50.237Z,954.57
2017-03-12T07:22:49.103Z,954.58
2017-03-12T07:23:40.554Z,954.52
2017-03-12T07:24:40.800Z,954.50
2017-03-12T07:25:45.689Z,954.55
2017-03-12T07:26:48.698Z,954.52
2017-03-12T07:27:45.385Z,954.54
2017-03-12T07:28:49.162Z,954.57
2017-03-12T07:29:45.583Z,954.55
2017-03-12T07:30:40.145Z,954.57
2017-03-12T07:31:55.307Z,954.58
2017-03-12T07:32:41.382Z,954.59
2017-03-12T07:33:45.220Z,954.60
2017-03-12T07:34:40.649Z,954.60
2017-03-12T07:35:40.589Z,954.61
2017-03-12T07:36:50.748Z,954.57
2017-03-12T07:37:46.963Z,954.62
2017-03-12T07:38:39.515Z,954.60
2017-03-12T07:39:49.879Z,954.59
2017-03-12T07:40:45.058Z,954.60
2017-03-12T07:41:40.401Z,954.59
2017-03-12T07:42:49.766Z,954.57
2017-03-12T07:43:40.742Z,954.61
2017-03-12T07:44:45.566Z,954.58
2017-03-12T07:45:55.343Z,954.61
2017-03-12T07:46:53.434Z,954.60
2017-03-12T07:47:45.006Z,954.57
2017-03-12T07:48:44.249Z,954.58
2017-03-12T07:49:44.050Z,954.65
2017-03-12T07:50:44.375Z,954.71
2017-03-12T07:51:48.997Z,954.66
2017-03-12T07:52:43.902Z,954.62
2017-03-12T07:53:45.394Z,954.64
2017-03-12T07:54:45.022Z,954.64
2017-03-12T07:55:45.587Z,954.63
2017-03-12T07:56:45.113Z,954.59
2017-03-12T07:57:40.497Z,954.60
2017-03-12T07:58:29.742Z,954.60
2017-03-12T07:59:40.229Z,954.62
2017-03-12T08:00:43.574Z,954.58
2017-03-12T08:01:39.571Z,954.68
2017-03-12T08:02:34.743Z,954.60
2017-03-12T08:03:42.860Z,954.60
2017-03-12T08:04:40.712Z,954.61
2017-03-12T08:05:39.504Z,954.61
2017-03-12T08:06:50.593Z,954.61
2017-03-12T08:07:50.702Z,954.61
2017-03-12T08:08:45.122Z,954.62
2017-03-12T08:09:46.220Z,954.63
2017-03-12T08:10:49.163Z,954.61
2017-03-12T08:11:44.445Z,954.60
2017-03-12T08:12:43.005Z,954.58
2017-03-12T08:13:44.870Z,954.58
2017-03-12T08:14:49.219Z,954.65
2017-03-12T08:15:44.696Z,954.65
2017-03-12T08:16:49.530Z,954.62
2017-03-12T08:17:55.822Z,954.60
2017-03-12T08:18:41.615Z,954.63
2017-03-12T08:19:45.135Z,954.62
2017-03-12T08:20:35.802Z,954.64
2017-03-12T08:21:40.909Z,954.66
2017-03-12T08:22:49.368Z,954.61
2017-03-12T08:23:48.343Z,954.63
2017-03-12T08:24:42.990Z,954.64
2017-03-12T08:25:43.100Z,954.62
2017-03-12T08:26:39.639Z,954.62
2017-03-12T08:27:38.958Z,954.65
2017-03-12T08:28:45.659Z,954.66
2017-03-12T08:29:39.949Z,954.57
2017-03-12T08:30:44.457Z,954.59
2017-03-12T08:31:45.450Z,954.64
2017-03-12T08:32:41.076Z,954.64
2017-03-12T08:33:52.245Z,954.59
2017-03-12T08:34:39.156Z,954.59
2017-03-12T08:35:44.450Z,954.57
2017-03-12T08:36:42.941Z,954.56
2017-03-12T08:37:47.566Z,954.56
2017-03-12T08:38:44.855Z,954.55
2017-03-12T08:39:51.154Z,954.58
2017-03-12T08:40:40.338Z,954.53
2017-03-12T08:41:44.708Z,954.49
2017-03-12T08:42:48.648Z,954.47
2017-03-12T08:43:34.397Z,954.47
2017-03-12T08:44:44.160Z,954.48
2017-03-12T08:45:32.852Z,954.49
2017-03-12T08:46:38.712Z,954.49
2017-03-12T08:47:38.706Z,954.48
2017-03-12T08:48:39.371Z,954.44
2017-03-12T08:49:45.390Z,954.48
2017-03-12T08:50:44.760Z,954.47
2017-03-12T08:51:45.147Z,954.47
2017-03-12T08:52:47.972Z,954.48
2017-03-12T08:53:33.664Z,954.43
2017-03-12T08:54:45.100Z,954.42
2017-03-12T08:55:40.308Z,954.42
2017-03-12T08:56:39.036Z,954.41
2017-03-12T08:57:44.365Z,954.40
2017-03-12T08:58:52.972Z,954.38
2017-03-12T08:59:45.117Z,954.39
2017-03-12T09:00:39.709Z,954.38
2017-03-12T09:01:44.416Z,954.40
2017-03-12T09:02:39.910Z,954.40
2017-03-12T09:03:49.422Z,954.39
2017-03-12T09:04:50.090Z,954.41
2017-03-12T09:05:39.038Z,954.34
2017-03-12T09:06:40.485Z,954.33
2017-03-12T09:07:39.490Z,954.30
2017-03-12T09:08:34.246Z,954.35
2017-03-12T09:09:27.126Z,954.36
2017-03-12T09:10:37.502Z,954.31
2017-03-12T09:11:38.455Z,954.33
2017-03-12T09:12:39.463Z,954.29
2017-03-12T09:13:48.357Z,954.29
2017-03-12T09:14:38.843Z,954.29
2017-03-12T09:15:39.045Z,954.24
2017-03-12T09:16:49.259Z,954.25
2017-03-12T09:17:26.706Z,954.20
2017-03-12T09:18:30.389Z,954.22
2017-03-12T09:19:37.420Z,954.25
2017-03-12T09:20:42.374Z,954.22
2017-03-12T09:21:30.939Z,954.19
2017-03-12T09:22:33.815Z,954.21
2017-03-12T09:23:38.669Z,954.19
2017-03-12T09:24:43.941Z,954.14
2017-03-12T09:25:45.830Z,954.16
2017-03-12T09:26:44.132Z,954.14
2017-03-12T09:27:44.968Z,954.12
2017-03-12T09:28:37.984Z,954.17
2017-03-12T09:29:41.905Z,954.18
2017-03-12T09:30:27.518Z,954.15
2017-03-12T09:31:36.833Z,954.17
2017-03-12T09:32:31.093Z,954.19
2017-03-12T09:33:31.079Z,954.17
2017-03-12T09:34:33.800Z,954.15
2017-03-12T09:35:47.051Z,954.19
2017-03-12T09:36:43.965Z,954.12
2017-03-12T09:37:50.337Z,954.15
2017-03-12T09:38:44.780Z,954.12
2017-03-12T09:39:46.853Z,954.12
2017-03-12T09:40:43.479Z,954.13
2017-03-12T09:41:39.488Z,954.09
2017-03-12T09:42:45.559Z,954.11
2017-03-12T09:43:48.991Z,954.15
2017-03-12T09:44:38.937Z,954.13
2017-03-12T09:45:38.023Z,954.14
2017-03-12T09:46:45.176Z,954.10
2017-03-12T09:47:37.577Z,954.11
2017-03-12T09:48:48.889Z,954.14
2017-03-12T09:49:37.100Z,954.12
2017-03-12T09:50:40.213Z,954.10
2017-03-12T09:51:39.914Z,954.13
2017-03-12T09:52:49.147Z,954.17
2017-03-12T09:53:50.244Z,954.14
2017-03-12T09:54:42.866Z,954.15
2017-03-12T09:55:54.977Z,954.17
2017-03-12T09:56:47.980Z,954.14
2017-03-12T09:57:44.507Z,954.13
2017-03-12T09:58:42.765Z,954.10
2017-03-12T09:59:42.964Z,954.08
2017-03-12T10:00:41.547Z,954.08
2017-03-12T10:01:45.392Z,954.10
2017-03-12T10:02:40.722Z,954.08
2017-03-12T10:03:40.667Z,954.06
2017-03-12T10:04:52.344Z,954.05
2017-03-12T10:05:40.488Z,954.05
2017-03-12T10:06:36.748Z,954.06
2017-03-12T10:07:43.006Z,954.04
2017-03-12T10:08:38.911Z,954.05
2017-03-12T10:09:39.545Z,954.04
2017-03-12T10:10:40.976Z,954.04
2017-03-12T10:11:48.821Z,954.07
2017-03-12T10:12:45.800Z,954.07
2017-03-12T10:13:40.586Z,954.01
2017-03-12T10:14:39.922Z,954.10
2017-03-12T10:15:40.005Z,954.05
2017-03-12T10:16:33.464Z,954.06
2017-03-12T10:17:44.503Z,954.09
2017-03-12T10:18:56.524Z,954.03
2017-03-12T10:19:42.530Z,954.02
2017-03-12T10:20:58.117Z,954.06
2017-03-12T10:21:37.267Z,954.01
2017-03-12T10:22:55.625Z,954.04
2017-03-12T10:23:44.845Z,954.06
2017-03-12T10:24:44.952Z,954.01
2017-03-12T10:25:40.258Z,953.96
2017-03-12T10:26:35.189Z,954.01
2017-03-12T10:27:53.211Z,953.98
2017-03-12T10:28:39.629Z,954.00
2017-03-12T10:29:42.572Z,954.00
2017-03-12T10:30:43.030Z,953.95
2017-03-12T10:31:43.411Z,954.00
2017-03-12T10:32:45.047Z,954.01
2017-03-12T10:33:39.933Z,954.00
2017-03-12T10:34:40.858Z,953.98
2017-03-12T10:35:45.716Z,953.99
2017-03-12T10:36:40.049Z,953.92
2017-03-12T10:37:39.905Z,953.94
2017-03-12T10:38:34.653Z,953.90
2017-03-12T10:39:43.161Z,953.88
2017-03-12T10:40:38.746Z,953.91
2017-03-12T10:41:44.373Z,953.85
2017-03-12T10:42:39.316Z,953.89
2017-03-12T10:43:54.803Z,953.88
2017-03-12T10:44:43.912Z,953.84
2017-03-12T10:45:41.288Z,953.81
2017-03-12T10:46:45.524Z,953.81
2017-03-12T10:47:40.813Z,953.82
2017-03-12T10:48:40.758Z,953.77
2017-03-12T10:49:39.334Z,953.77
2017-03-12T10:50:44.380Z,953.76
2017-03-12T10:51:43.997Z,953.79
2017-03-12T10:52:40.997Z,953.80
2017-03-12T10:53:48.812Z,953.81
2017-03-12T10:54:40.408Z,953.81
2017-03-12T10:55:41.758Z,953.71
2017-03-12T10:56:45.420Z,953.66
2017-03-12T10:57:44.745Z,953.74
2017-03-12T10:58:45.070Z,953.73
2017-03-12T10:59:49.543Z,953.68
2017-03-12T11:00:40.331Z,953.64
2017-03-12T11:01:45.493Z,953.73
2017-03-12T11:02:45.702Z,953.68
2017-03-12T11:03:43.057Z,953.70
2017-03-12T11:04:39.407Z,953.73
2017-03-12T11:05:39.530Z,953.73
2017-03-12T11:06:45.459Z,953.69
2017-03-12T11:07:52.405Z,953.71
2017-03-12T11:08:41.647Z,953.68
2017-03-12T11:09:45.521Z,953.69
2017-03-12T11:10:50.245Z,953.64
2017-03-12T11:11:44.848Z,953.69
2017-03-12T11:12:45.219Z,953.71
2017-03-12T11:13:53.422Z,953.77
2017-03-12T11:14:53.699Z,953.77
2017-03-12T11:15:39.430Z,953.73
2017-03-12T11:16:45.797Z,953.68
2017-03-12T11:17:39.483Z,953.67
2017-03-12T11:18:40.238Z,953.67
2017-03-12T11:19:49.594Z,953.63
2017-03-12T11:20:50.557Z,953.67
2017-03-12T11:21:49.910Z,953.64
2017-03-12T11:22:45.656Z,953.60
2017-03-12T11:23:40.570Z,953.60
2017-03-12T11:24:40.418Z,953.59
2017-03-12T11:25:50.682Z,953.63
2017-03-12T11:26:38.597Z,953.63
2017-03-12T11:27:55.401Z,953.63
2017-03-12T11:28:45.066Z,953.55
2017-03-12T11:29:46.363Z,953.68
2017-03-12T11:30:39.791Z,953.60
2017-03-12T11:31:44.581Z,953.53
2017-03-12T11:32:47.258Z,953.50
2017-03-12T11:33:39.823Z,953.58
2017-03-12T11:34:39.365Z,953.55
2017-03-12T11:35:43.630Z,953.55
2017-03-12T11:36:44.162Z,953.54
2017-03-12T11:37:39.261Z,953.49
2017-03-12T11:38:38.033Z,953.54
2017-03-12T11:39:39.594Z,953.45
2017-03-12T11:40:45.497Z,953.42
2017-03-12T11:41:35.619Z,953.46
2017-03-12T11:42:54.147Z,953.39
2017-03-12T11:43:43.730Z,953.38
2017-03-12T11:44:49.938Z,953.37
2017-03-12T11:45:45.128Z,953.43
2017-03-12T11:46:34.650Z,953.38
2017-03-12T11:47:46.577Z,953.31
2017-03-12T11:48:43.505Z,953.31
2017-03-12T11:49:45.128Z,953.31
2017-03-12T11:50:39.104Z,953.30
2017-03-12T11:51:41.204Z,953.28
2017-03-12T11:52:39.787Z,953.31
2017-03-12T11:53:39.628Z,953.24
2017-03-12T11:54:40.419Z,953.17
2017-03-12T11:55:49.090Z,953.20
2017-03-12T11:56:39.899Z,953.25
2017-03-12T11:57:44.397Z,953.25
2017-03-12T11:58:44.014Z,953.25
2017-03-12T11:59:45.166Z,953.22
2017-03-12T12:00:47.188Z,953.19
2017-03-12T12:01:43.560Z,953.28
2017-03-12T12:02:44.260Z,953.17
2017-03-12T12:03:48.878Z,953.11
2017-03-12T12:04:43.994Z,953.07
2017-03-12T12:05:27.639Z,953.11
2017-03-12T12:06:22.363Z,953.11
2017-03-12T12:07:19.816Z,953.08
2017-03-12T12:08:22.386Z,953.12
2017-03-12T12:09:20.656Z,953.14
2017-03-12T12:10:20.882Z,953.08
2017-03-12T12:11:23.626Z,953.01
2017-03-12T12:12:22.091Z,953.02
2017-03-12T12:13:24.231Z,952.96
2017-03-12T12:14:20.624Z,952.92
2017-03-12T12:15:20.692Z,952.97
2017-03-12T12:16:27.637Z,952.92
2017-03-12T12:17:24.411Z,952.96
2017-03-12T12:18:37.256Z,952.90
2017-03-12T12:20:23.957Z,952.86
2017-03-12T12:21:21.646Z,952.83
2017-03-12T12:22:31.959Z,952.86
2017-03-12T12:23:26.947Z,952.91
2017-03-12T12:24:27.023Z,952.83
2017-03-12T12:25:41.096Z,952.88
2017-03-12T12:26:39.501Z,952.83
2017-03-12T12:27:41.517Z,952.77
2017-03-12T12:28:44.236Z,952.75
2017-03-12T12:29:35.128Z,952.77
2017-03-12T12:30:29.247Z,952.70
2017-03-12T12:31:33.590Z,952.67
2017-03-12T12:32:19.360Z,952.73
2017-03-12T12:33:25.360Z,952.72
2017-03-12T12:34:29.683Z,952.75
2017-03-12T12:35:43.951Z,952.70
2017-03-12T12:36:41.996Z,952.72
2017-03-12T12:37:38.545Z,952.70
2017-03-12T12:38:37.250Z,952.69